Bergheim, Austria
Current Conditions -  °F | °C
As of 2:50 AM on Monday 24 Nov 2014 (Local Time) from LOWS Reporting Station
Moderate Fog Moderate Fog  
Wind Chill: 36°   Ceiling: 100
Heat Index: 36°   Visibility: 0.28mi
Dew Point: 36°   Wind: 1mph
Humidity: 100%   Direction: NA
Pressure: 30.18"   Gusts: NA
Location:  47.84°N, 13.02°E
Report Text: LOWS 240050Z AUTO VRB01KT 0450 R15/0500N R33/0450N FG VV001 02/02 Q1022
Loading
Personal Weather Stations






























Interactive Weather Map New forecast layout! Learn more

10-Day Weather Forecast

Advertisements
Track Severe Weather on mobile